Time;durP1;ratioP1;P1;durP2;ratioP2;P2;SDS_P1;SDS_P2;PMS_P1;PMS_P2;Temp;Humidity;BMP_temperature;BMP_pressure;BME280_temperature;BME280_humidity;BME280_pressure;Samples;Min_cycle;Max_cycle;Signal;HPM_P1;HPM_P2
2023/12/26 00:00:11;;;;;;;9.20;3.80;;;8.90;87.60;;;;;;5005908;28;20103;-77
2023/12/26 00:02:36;;;;;;;5.37;3.20;;;8.90;87.70;;;;;;5005182;28;20057;-77
2023/12/26 00:05:05;;;;;;;7.57;3.40;;;8.90;87.70;;;;;;5025667;28;20532;-80
2023/12/26 00:07:30;;;;;;;5.27;3.03;;;8.90;87.70;;;;;;5024241;28;20072;-80
2023/12/26 00:09:56;;;;;;;7.50;3.20;;;8.90;87.70;;;;;;5025961;28;20496;-78
2023/12/26 00:12:24;;;;;;;5.73;2.33;;;9.00;87.60;;;;;;5024512;28;20137;-78
2023/12/26 00:14:50;;;;;;;5.93;2.50;;;9.00;87.70;;;;;;5019823;28;20052;-80
2023/12/26 00:17:16;;;;;;;4.93;2.10;;;9.00;87.70;;;;;;5025512;28;20523;-81
2023/12/26 00:19:42;;;;;;;5.40;2.60;;;9.00;87.70;;;;;;5020534;28;20041;-80
2023/12/26 00:22:07;;;;;;;5.80;2.20;;;9.00;87.60;;;;;;5026390;28;20114;-79
2023/12/26 00:24:33;;;;;;;5.37;2.20;;;9.00;87.60;;;;;;5024673;28;20056;-77
2023/12/26 00:26:59;;;;;;;4.63;1.70;;;9.00;87.50;;;;;;5025220;28;20500;-79
2023/12/26 00:29:24;;;;;;;3.23;1.70;;;9.00;87.40;;;;;;5024591;28;20099;-82
2023/12/26 00:31:50;;;;;;;4.20;1.50;;;9.00;87.40;;;;;;5025995;28;20615;-80
2023/12/26 00:34:16;;;;;;;8.53;1.80;;;9.00;87.50;;;;;;5030288;28;20080;-78
2023/12/26 00:36:42;;;;;;;3.63;1.40;;;9.00;87.50;;;;;;5027615;28;20128;-79
2023/12/26 00:39:07;;;;;;;3.30;1.43;;;9.00;87.40;;;;;;5028669;28;20140;-79
2023/12/26 00:41:33;;;;;;;4.20;1.37;;;9.00;87.40;;;;;;5022519;28;20144;-78
2023/12/26 00:43:59;;;;;;;5.03;1.57;;;9.00;87.50;;;;;;5023774;28;20049;-81
2023/12/26 00:46:25;;;;;;;6.00;1.70;;;9.00;87.50;;;;;;5020509;28;20053;-79
2023/12/26 00:48:50;;;;;;;3.50;1.50;;;9.00;87.40;;;;;;5008044;28;20465;-80
2023/12/26 00:51:16;;;;;;;6.60;1.63;;;9.00;87.40;;;;;;5028081;28;20073;-81
2023/12/26 00:53:42;;;;;;;4.63;1.53;;;9.00;87.40;;;;;;5026944;28;20572;-78
2023/12/26 00:56:07;;;;;;;6.00;1.60;;;9.00;87.30;;;;;;5029107;28;20046;-80
2023/12/26 00:58:33;;;;;;;4.43;1.17;;;9.00;87.30;;;;;;5028579;28;20045;-80
2023/12/26 01:00:59;;;;;;;6.07;1.30;;;9.00;87.20;;;;;;5029428;28;20091;-80
2023/12/26 01:03:25;;;;;;;9.63;1.57;;;9.00;87.30;;;;;;5026100;28;20053;-81
2023/12/26 01:05:51;;;;;;;8.47;1.30;;;9.00;87.30;;;;;;5026375;28;20060;-81
2023/12/26 01:08:18;;;;;;;10.90;1.50;;;9.00;87.00;;;;;;5014063;28;20068;-81
2023/12/26 01:10:44;;;;;;;8.47;1.80;;;9.00;87.00;;;;;;5028755;28;20500;-80
2023/12/26 01:13:10;;;;;;;10.80;1.97;;;9.00;86.80;;;;;;5023832;28;20125;-81
2023/12/26 01:15:39;;;;;;;10.90;2.10;;;9.00;86.70;;;;;;5008298;28;20057;-80
2023/12/26 01:18:05;;;;;;;17.23;2.03;;;9.00;86.70;;;;;;5014487;28;20452;-81
2023/12/26 01:20:31;;;;;;;9.00;2.00;;;9.00;86.70;;;;;;5026070;28;20073;-80
2023/12/26 01:22:57;;;;;;;13.47;2.23;;;9.00;86.60;;;;;;5027912;28;20072;-81
2023/12/26 01:25:22;;;;;;;19.00;2.77;;;9.00;86.60;;;;;;5028397;28;20462;-79
2023/12/26 01:27:48;;;;;;;13.10;1.93;;;9.00;86.50;;;;;;5027387;28;20049;-81
2023/12/26 01:30:14;;;;;;;14.97;2.50;;;9.00;86.40;;;;;;5028075;28;20064;-79
2023/12/26 01:32:40;;;;;;;13.20;2.63;;;9.00;86.30;;;;;;5021905;28;20400;-80
2023/12/26 01:35:06;;;;;;;14.20;2.40;;;9.00;86.30;;;;;;5028513;28;20079;-79
2023/12/26 01:37:32;;;;;;;23.13;3.10;;;9.00;86.20;;;;;;5011850;28;20089;-79
2023/12/26 01:39:57;;;;;;;15.17;2.90;;;9.00;86.30;;;;;;5008518;28;20053;-79
2023/12/26 01:42:23;;;;;;;16.83;2.33;;;9.00;86.20;;;;;;5014321;28;20058;-79
2023/12/26 01:44:49;;;;;;;12.77;2.60;;;9.00;86.00;;;;;;5027501;28;20053;-80
2023/12/26 01:47:16;;;;;;;15.97;2.90;;;9.00;85.90;;;;;;5027628;28;20064;-78
2023/12/26 01:49:42;;;;;;;19.27;3.03;;;9.00;85.80;;;;;;5028308;28;20069;-79
2023/12/26 01:52:09;;;;;;;21.67;2.83;;;9.00;85.70;;;;;;5028337;28;20053;-81
2023/12/26 01:54:37;;;;;;;18.43;3.00;;;9.00;85.50;;;;;;5015594;28;20108;-79
2023/12/26 01:57:07;;;;;;;23.07;3.57;;;9.00;85.40;;;;;;5028238;28;20456;-78
2023/12/26 01:59:36;;;;;;;25.53;3.70;;;9.00;85.30;;;;;;5026928;28;20046;-79
2023/12/26 02:02:03;;;;;;;23.00;3.43;;;8.90;85.30;;;;;;5025818;28;20045;-79
2023/12/26 02:04:29;;;;;;;21.60;3.80;;;8.90;85.30;;;;;;5026718;28;20041;-79
2023/12/26 02:06:59;;;;;;;23.30;3.77;;;8.90;85.20;;;;;;5027026;28;20404;-78
2023/12/26 02:09:25;;;;;;;18.67;3.50;;;8.90;85.20;;;;;;5026683;28;20049;-77
2023/12/26 02:11:54;;;;;;;21.20;4.33;;;8.90;85.00;;;;;;5026431;28;20045;-79
2023/12/26 02:14:21;;;;;;;21.43;3.10;;;8.90;84.90;;;;;;5026239;28;20091;-79
2023/12/26 02:16:48;;;;;;;17.40;3.87;;;8.90;84.80;;;;;;5026210;28;20060;-78
2023/12/26 02:19:17;;;;;;;26.13;3.03;;;8.90;84.40;;;;;;5022709;28;20049;-79
2023/12/26 02:21:43;;;;;;;18.70;3.30;;;8.90;84.50;;;;;;5019277;28;20065;-77
2023/12/26 02:24:09;;;;;;;20.13;3.63;;;8.90;83.90;;;;;;5027761;28;20047;-79
2023/12/26 02:26:40;;;;;;;24.17;3.67;;;8.90;83.40;;;;;;5026498;28;20095;-78
2023/12/26 02:29:06;;;;;;;;;;;8.90;83.30;;;;;;5025764;28;20416;-76
2023/12/26 02:31:34;;;;;;;21.17;3.83;;;8.90;83.00;;;;;;5025175;28;19921;-80
2023/12/26 02:34:00;;;;;;;26.97;3.90;;;8.90;83.10;;;;;;5011773;28;20050;-81
2023/12/26 02:36:27;;;;;;;17.80;3.47;;;8.80;82.90;;;;;;5008191;28;20289;-79
2023/12/26 02:38:53;;;;;;;24.90;4.43;;;8.80;82.70;;;;;;5006110;28;20149;-78
2023/12/26 02:41:19;;;;;;;18.47;4.07;;;8.80;82.70;;;;;;5005845;28;20050;-78
2023/12/26 02:43:44;;;;;;;19.57;4.00;;;8.80;82.40;;;;;;5022882;28;20068;-78
2023/12/26 02:46:10;;;;;;;25.50;4.13;;;8.70;82.50;;;;;;5026830;28;20496;-78
2023/12/26 02:48:36;;;;;;;24.60;4.00;;;8.60;82.10;;;;;;5027452;28;20057;-79
2023/12/26 02:51:02;;;;;;;17.23;3.33;;;8.60;82.10;;;;;;5027303;28;20088;-78
2023/12/26 02:53:28;;;;;;;22.20;3.63;;;8.60;82.20;;;;;;5024878;28;20041;-77
2023/12/26 02:55:54;;;;;;;19.33;3.73;;;8.50;82.10;;;;;;5013182;28;20060;-77
2023/12/26 02:58:20;;;;;;;26.93;3.83;;;8.50;82.10;;;;;;5008005;28;20046;-79
2023/12/26 03:00:46;;;;;;;22.17;3.80;;;8.50;81.90;;;;;;5023236;28;20237;-79
2023/12/26 03:03:12;;;;;;;21.00;3.77;;;8.50;81.90;;;;;;5017421;28;20054;-78
2023/12/26 03:05:38;;;;;;;16.33;3.17;;;8.40;81.80;;;;;;5011349;28;20072;-78
2023/12/26 03:08:04;;;;;;;14.33;3.50;;;8.40;81.90;;;;;;5026290;28;20045;-78
2023/12/26 03:10:29;;;;;;;20.33;3.60;;;8.30;81.70;;;;;;5026496;28;20492;-78
2023/12/26 03:12:55;;;;;;;15.87;3.90;;;8.30;81.40;;;;;;5023159;28;20046;-77
2023/12/26 03:15:21;;;;;;;20.43;3.13;;;8.30;81.60;;;;;;5006901;28;20408;-78
2023/12/26 03:17:46;;;;;;;21.20;3.70;;;8.20;81.80;;;;;;5018459;28;20053;-77
2023/12/26 03:20:12;;;;;;;23.10;3.77;;;8.20;81.50;;;;;;5025806;28;20049;-77
2023/12/26 03:22:41;;;;;;;20.13;3.67;;;8.10;81.50;;;;;;5027167;28;20060;-78
2023/12/26 03:25:07;;;;;;;20.67;3.80;;;8.10;81.10;;;;;;5026358;28;20054;-77
2023/12/26 03:27:33;;;;;;;26.57;3.67;;;8.10;81.10;;;;;;5026653;28;20258;-77
2023/12/26 03:29:59;;;;;;;21.83;3.67;;;8.00;81.10;;;;;;5016610;28;20108;-77
2023/12/26 03:32:25;;;;;;;19.07;3.73;;;8.00;81.00;;;;;;5005538;28;20054;-78
2023/12/26 03:34:50;;;;;;;20.93;4.10;;;8.00;80.80;;;;;;5006659;28;20045;-78
2023/12/26 03:37:16;;;;;;;19.50;3.73;;;8.00;80.10;;;;;;5006814;28;20095;-78
2023/12/26 03:39:42;;;;;;;17.50;3.90;;;8.00;80.10;;;;;;5013233;28;20140;-77
2023/12/26 03:42:08;;;;;;;25.07;3.80;;;7.90;80.00;;;;;;5023430;28;20099;-77
2023/12/26 03:44:33;;;;;;;23.13;4.03;;;7.80;80.20;;;;;;5022206;28;20107;-79
2023/12/26 03:46:59;;;;;;;20.33;4.03;;;7.80;79.90;;;;;;5025795;28;20053;-81
2023/12/26 03:49:25;;;;;;;18.97;3.60;;;7.80;79.00;;;;;;5026910;28;20408;-78
2023/12/26 03:51:50;;;;;;;24.10;4.13;;;7.80;78.80;;;;;;5025813;28;20052;-78
2023/12/26 03:54:18;;;;;;;22.30;3.93;;;7.70;78.70;;;;;;5015215;28;20058;-77
2023/12/26 03:56:44;;;;;;;21.23;4.10;;;7.60;78.60;;;;;;5024970;28;20050;-78
2023/12/26 03:59:09;;;;;;;26.00;4.80;;;7.60;78.30;;;;;;5025771;28;20049;-76
2023/12/26 04:01:35;;;;;;;28.50;5.13;;;7.50;78.20;;;;;;5025589;28;20083;-78
2023/12/26 04:04:02;;;;;;;26.30;3.83;;;7.50;78.20;;;;;;5026272;28;20059;-80
2023/12/26 04:06:28;;;;;;;28.87;5.07;;;7.40;78.00;;;;;;5025933;28;20049;-79
2023/12/26 04:08:53;;;;;;;27.90;4.97;;;7.40;78.00;;;;;;5026445;28;20103;-77
2023/12/26 04:11:19;;;;;;;24.00;4.27;;;7.40;77.90;;;;;;5025248;28;20464;-78
2023/12/26 04:13:45;;;;;;;24.13;5.40;;;7.30;77.70;;;;;;5025004;28;20075;-78
2023/12/26 04:16:11;;;;;;;24.33;4.93;;;7.30;77.80;;;;;;5026061;28;20115;-77
2023/12/26 04:18:36;;;;;;;29.27;5.50;;;7.20;78.10;;;;;;5026188;28;20402;-78
2023/12/26 04:21:02;;;;;;;26.70;5.00;;;7.20;78.20;;;;;;5025832;28;20104;-79
2023/12/26 04:23:28;;;;;;;26.00;4.90;;;7.20;78.00;;;;;;5026273;28;20049;-77
2023/12/26 04:25:53;;;;;;;25.47;5.10;;;7.10;77.90;;;;;;5025053;28;20054;-79
2023/12/26 04:28:19;;;;;;;27.10;4.70;;;7.10;78.10;;;;;;5025826;28;20133;-77
2023/12/26 04:30:47;;;;;;;20.30;4.17;;;7.10;78.10;;;;;;5009048;28;20056;-77
2023/12/26 04:33:13;;;;;;;25.03;4.53;;;7.10;78.50;;;;;;5031909;28;20053;-77
2023/12/26 04:35:38;;;;;;;22.80;4.83;;;7.00;78.40;;;;;;5024020;28;20060;-78
2023/12/26 04:38:04;;;;;;;24.53;5.00;;;7.00;78.20;;;;;;5024252;28;20081;-77
2023/12/26 04:40:30;;;;;;;22.30;4.77;;;7.00;78.60;;;;;;5024387;28;20064;-77
2023/12/26 04:42:59;;;;;;;23.13;5.00;;;7.00;78.40;;;;;;5032948;28;20424;-76
2023/12/26 04:45:25;;;;;;;25.23;4.97;;;7.00;78.50;;;;;;5007967;28;20064;-77
2023/12/26 04:47:50;;;;;;;20.93;4.97;;;7.00;78.40;;;;;;5025824;28;20042;-78
2023/12/26 04:50:16;;;;;;;26.83;4.60;;;7.10;78.50;;;;;;5025296;28;20061;-77
2023/12/26 04:52:42;;;;;;;24.67;4.40;;;7.10;78.40;;;;;;5025082;28;20138;-78
2023/12/26 04:55:08;;;;;;;25.07;4.57;;;7.10;78.40;;;;;;5019063;28;20050;-76
2023/12/26 04:57:34;;;;;;;26.07;4.73;;;7.10;78.40;;;;;;5006062;28;20045;-76
2023/12/26 04:59:59;;;;;;;22.57;4.27;;;7.20;78.10;;;;;;5016800;28;20056;-77
2023/12/26 05:02:25;;;;;;;23.87;5.43;;;7.20;78.00;;;;;;5025099;28;20050;-77
2023/12/26 05:04:51;;;;;;;26.27;4.43;;;7.20;78.20;;;;;;5024937;28;20100;-77
2023/12/26 05:07:16;;;;;;;20.37;4.37;;;7.20;78.30;;;;;;5025255;28;20124;-77
2023/12/26 05:09:43;;;;;;;27.27;5.13;;;7.20;78.20;;;;;;5025056;28;20140;-77
2023/12/26 05:12:09;;;;;;;34.47;4.90;;;7.20;78.10;;;;;;5024161;28;20559;-77
2023/12/26 05:14:34;;;;;;;25.23;3.93;;;7.30;77.80;;;;;;5023092;28;20037;-76
2023/12/26 05:17:00;;;;;;;24.07;4.03;;;7.40;77.80;;;;;;5008772;28;20556;-77
2023/12/26 05:19:26;;;;;;;26.90;4.70;;;7.40;78.30;;;;;;5009927;28;20057;-77
2023/12/26 05:21:51;;;;;;;16.73;3.90;;;7.40;77.90;;;;;;5009567;28;20132;-77
2023/12/26 05:24:17;;;;;;;25.00;4.23;;;7.40;78.00;;;;;;5013567;28;20060;-76
2023/12/26 05:26:43;;;;;;;17.87;4.37;;;7.50;77.40;;;;;;5024259;28;20505;-78
2023/12/26 05:29:10;;;;;;;23.83;4.57;;;7.50;77.10;;;;;;5027729;28;20037;-76
2023/12/26 05:31:38;;;;;;;24.60;4.27;;;7.50;76.90;;;;;;5027173;28;20119;-76
2023/12/26 05:34:07;;;;;;;24.43;4.50;;;7.50;77.30;;;;;;5020753;28;20505;-75
2023/12/26 05:36:33;;;;;;;23.60;4.27;;;7.50;77.10;;;;;;5027150;28;20049;-77
2023/12/26 05:38:59;;;;;;;22.17;4.77;;;7.50;77.20;;;;;;5028244;28;20068;-77
2023/12/26 05:41:27;;;;;;;18.83;4.00;;;7.50;77.00;;;;;;5027190;28;20065;-76
2023/12/26 05:43:53;;;;;;;20.20;4.33;;;7.50;77.10;;;;;;5022628;28;20093;-76
2023/12/26 05:46:20;;;;;;;19.37;4.63;;;7.50;77.50;;;;;;5028035;28;20049;-75
2023/12/26 05:48:46;;;;;;;20.77;4.40;;;7.50;77.00;;;;;;5027571;28;20436;-76
2023/12/26 05:51:12;;;;;;;20.97;3.50;;;7.60;77.30;;;;;;5028242;28;20052;-77
2023/12/26 05:53:37;;;;;;;23.10;4.53;;;7.60;77.10;;;;;;5026467;28;20058;-76
2023/12/26 05:56:03;;;;;;;20.93;4.10;;;7.60;77.10;;;;;;5027179;28;20504;-76
2023/12/26 05:58:29;;;;;;;17.97;3.63;;;7.70;77.50;;;;;;5028705;28;20460;-76
2023/12/26 06:00:55;;;;;;;21.67;3.53;;;7.70;77.60;;;;;;5008082;28;20046;-76
2023/12/26 06:03:21;;;;;;;19.90;3.30;;;7.70;77.90;;;;;;5020372;28;20065;-76
2023/12/26 06:05:47;;;;;;;17.63;3.53;;;7.60;77.90;;;;;;5026308;28;20096;-76
2023/12/26 06:08:14;;;;;;;22.33;4.23;;;7.70;77.80;;;;;;5027956;28;20516;-76
2023/12/26 06:10:39;;;;;;;20.20;3.80;;;7.70;77.90;;;;;;5027508;28;20060;-77
2023/12/26 06:13:05;;;;;;;21.23;3.93;;;7.60;77.60;;;;;;5027904;28;20050;-77
2023/12/26 06:15:31;;;;;;;20.30;3.70;;;7.60;77.70;;;;;;5026462;28;20420;-76
2023/12/26 06:17:59;;;;;;;19.50;3.93;;;7.60;77.60;;;;;;5018409;28;20049;-76
2023/12/26 06:20:27;;;;;;;20.70;3.77;;;7.60;77.60;;;;;;5007787;28;20054;-75
2023/12/26 06:22:53;;;;;;;27.17;3.90;;;7.50;77.30;;;;;;5007549;28;20060;-76
2023/12/26 06:25:19;;;;;;;18.93;3.37;;;7.50;77.50;;;;;;5008200;28;20044;-76
2023/12/26 06:27:44;;;;;;;17.80;3.80;;;7.50;77.40;;;;;;5008725;28;20041;-76
2023/12/26 06:30:11;;;;;;;16.33;4.00;;;7.50;77.30;;;;;;5027405;28;20045;-76
2023/12/26 06:32:37;;;;;;;23.87;4.13;;;7.50;77.10;;;;;;5022369;28;20042;-77
2023/12/26 06:35:03;;;;;;;11.10;3.47;;;7.50;77.20;;;;;;5014904;28;20578;-75
2023/12/26 06:37:28;;;;;;;22.60;4.30;;;7.50;77.10;;;;;;5027028;28;20556;-71
2023/12/26 06:39:54;;;;;;;30.33;4.47;;;7.50;77.10;;;;;;5027126;28;20053;-76
2023/12/26 06:42:20;;;;;;;21.40;4.07;;;7.50;77.00;;;;;;5020724;28;20052;-76
2023/12/26 06:44:46;;;;;;;18.97;4.00;;;7.40;77.20;;;;;;5012044;28;20054;-77
2023/12/26 06:47:12;;;;;;;24.03;5.10;;;7.40;77.20;;;;;;5023148;28;20042;-76
2023/12/26 06:49:43;;;;;;;23.93;4.70;;;7.40;77.10;;;;;;5027451;28;20072;-76
2023/12/26 06:52:09;;;;;;;24.60;4.53;;;7.40;77.30;;;;;;5025409;28;20053;-75
2023/12/26 06:54:34;;;;;;;23.03;4.07;;;7.40;77.10;;;;;;5024664;28;20127;-76
2023/12/26 06:57:07;;;;;;;21.70;4.17;;;7.40;77.30;;;;;;5007609;28;20095;-75
2023/12/26 06:59:33;;;;;;;23.07;4.80;;;7.40;77.20;;;;;;5037352;28;20057;-76
2023/12/26 07:01:58;;;;;;;30.10;5.00;;;7.40;77.30;;;;;;5009019;28;20075;-75
2023/12/26 07:04:24;;;;;;;22.53;4.70;;;7.50;77.20;;;;;;5024599;28;20084;-77
2023/12/26 07:06:50;;;;;;;29.67;4.50;;;7.50;77.10;;;;;;5024649;28;20064;-76
2023/12/26 07:09:15;;;;;;;27.83;4.77;;;7.50;77.30;;;;;;5024641;28;20064;-76
2023/12/26 07:11:41;;;;;;;18.93;4.50;;;7.50;77.30;;;;;;5023635;28;20073;-76
2023/12/26 07:14:07;;;;;;;25.90;4.67;;;7.50;77.50;;;;;;4999524;28;20184;-76
2023/12/26 07:16:35;;;;;;;24.27;4.40;;;7.50;77.60;;;;;;5024885;28;20124;-76
2023/12/26 07:19:01;;;;;;;23.20;4.43;;;7.50;77.70;;;;;;5025198;28;20111;-75
2023/12/26 07:21:27;;;;;;;26.97;4.20;;;7.50;77.60;;;;;;5037251;28;20150;-75
2023/12/26 07:23:53;;;;;;;21.83;5.17;;;7.50;77.50;;;;;;5045826;28;20472;-75
2023/12/26 07:26:21;;;;;;;28.60;5.13;;;7.50;77.60;;;;;;5025927;28;20493;-75
2023/12/26 07:28:47;;;;;;;24.43;4.63;;;7.50;77.80;;;;;;5025866;28;20084;-76
2023/12/26 07:31:23;;;;;;;25.63;5.20;;;7.50;77.50;;;;;;5025304;28;20069;-76
2023/12/26 07:33:51;;;;;;;31.33;5.87;;;7.50;77.40;;;;;;5011001;28;20154;-76
2023/12/26 07:36:17;;;;;;;24.60;4.73;;;7.50;77.50;;;;;;5020385;28;20053;-76
2023/12/26 07:38:43;;;;;;;29.23;5.00;;;7.50;77.50;;;;;;4986628;28;20054;-75
2023/12/26 07:41:09;;;;;;;25.00;6.47;;;7.50;77.60;;;;;;4999155;28;20417;-76
2023/12/26 07:43:34;;;;;;;26.63;7.13;;;7.50;77.50;;;;;;4982792;28;20046;-75
2023/12/26 07:46:00;;;;;;;29.00;5.10;;;7.50;77.40;;;;;;5005725;28;20472;-76
2023/12/26 07:48:26;;;;;;;26.90;5.53;;;7.50;77.50;;;;;;5006587;28;20053;-75
2023/12/26 07:50:51;;;;;;;29.30;5.13;;;7.50;77.60;;;;;;5014164;28;20038;-76
2023/12/26 07:53:17;;;;;;;22.50;4.73;;;7.50;77.60;;;;;;5006775;28;20119;-76
2023/12/26 07:55:43;;;;;;;26.90;4.77;;;7.50;77.30;;;;;;5011466;28;20523;-75
2023/12/26 07:58:08;;;;;;;27.30;5.20;;;7.50;77.40;;;;;;5026327;28;20045;-75
2023/12/26 08:00:34;;;;;;;29.23;5.47;;;7.50;77.30;;;;;;5007545;28;20156;-75
2023/12/26 08:03:00;;;;;;;29.20;5.47;;;7.50;77.30;;;;;;5024163;28;20052;-75
2023/12/26 08:05:26;;;;;;;29.70;5.07;;;7.50;77.00;;;;;;5017881;28;20062;-75
2023/12/26 08:07:52;;;;;;;22.00;4.73;;;7.50;77.20;;;;;;5025432;28;20041;-76
2023/12/26 08:10:17;;;;;;;24.63;5.10;;;7.50;77.20;;;;;;5022568;28;20113;-75
2023/12/26 08:12:44;;;;;;;29.83;5.27;;;7.40;77.30;;;;;;5022864;28;20049;-76
2023/12/26 08:15:10;;;;;;;29.67;5.47;;;7.40;77.30;;;;;;5025122;28;20053;-75
2023/12/26 08:17:36;;;;;;;31.20;5.27;;;7.40;77.50;;;;;;5022517;28;20103;-75
2023/12/26 08:20:06;;;;;;;21.80;5.57;;;7.30;77.50;;;;;;5024939;28;20117;-76
2023/12/26 08:22:31;;;;;;;29.43;5.13;;;7.30;77.60;;;;;;5024400;28;20049;-75
2023/12/26 08:24:57;;;;;;;21.07;4.80;;;7.30;77.70;;;;;;5019755;28;20480;-75
2023/12/26 08:27:23;;;;;;;31.13;5.13;;;7.40;77.50;;;;;;5021507;28;20060;-75
2023/12/26 08:29:49;;;;;;;33.13;5.60;;;7.40;77.50;;;;;;5022911;28;20085;-75
2023/12/26 08:32:16;;;;;;;30.33;5.37;;;7.40;77.50;;;;;;5022928;28;20164;-76
2023/12/26 08:34:44;;;;;;;26.40;4.93;;;7.40;77.40;;;;;;5022729;28;20377;-75
2023/12/26 08:37:13;;;;;;;32.87;5.23;;;7.40;77.50;;;;;;5022825;28;20136;-76
2023/12/26 08:39:39;;;;;;;31.50;5.27;;;7.40;77.40;;;;;;5016519;28;20099;-75
2023/12/26 08:42:06;;;;;;;25.97;5.23;;;7.40;77.30;;;;;;5021760;28;20133;-74
2023/12/26 08:44:32;;;;;;;27.80;5.03;;;7.50;77.20;;;;;;5022281;28;20053;-76
2023/12/26 08:47:04;;;;;;;32.00;4.90;;;7.50;77.30;;;;;;5022292;28;20103;-75
2023/12/26 08:49:30;;;;;;;33.17;5.47;;;7.50;77.30;;;;;;5020877;28;20054;-74
2023/12/26 08:51:56;;;;;;;19.93;4.67;;;7.50;77.20;;;;;;5021033;28;20398;-75
2023/12/26 08:54:21;;;;;;;27.40;5.03;;;7.50;77.20;;;;;;5019764;28;20401;-76
2023/12/26 08:56:48;;;;;;;26.93;4.53;;;7.50;76.90;;;;;;5025728;28;20416;-75
2023/12/26 08:59:13;;;;;;;23.93;5.23;;;7.50;77.00;;;;;;5026640;28;20077;-75
2023/12/26 09:01:39;;;;;;;24.20;4.57;;;7.50;77.10;;;;;;5025509;28;20333;-76
2023/12/26 09:04:07;;;;;;;24.63;5.00;;;7.50;77.20;;;;;;5025806;28;20401;-75
2023/12/26 09:06:33;;;;;;;27.60;4.90;;;7.50;77.10;;;;;;5024049;28;20456;-75
2023/12/26 09:08:59;;;;;;;26.90;5.20;;;7.60;77.20;;;;;;5026702;28;20045;-76
2023/12/26 09:11:24;;;;;;;25.97;4.93;;;7.60;77.00;;;;;;5025960;28;20064;-75
2023/12/26 09:13:50;;;;;;;22.27;4.30;;;7.60;76.40;;;;;;5021585;28;20045;-76
2023/12/26 09:16:16;;;;;;;20.50;4.77;;;7.70;76.70;;;;;;5025614;28;20401;-76
2023/12/26 09:18:42;;;;;;;25.07;4.73;;;7.70;76.60;;;;;;5025692;28;20053;-76
2023/12/26 09:21:07;;;;;;;21.50;5.10;;;7.80;76.60;;;;;;5024510;28;20106;-76
2023/12/26 09:23:33;;;;;;;20.17;4.40;;;7.80;76.30;;;;;;5025270;28;20060;-76
2023/12/26 09:26:03;;;;;;;26.90;5.37;;;7.80;76.50;;;;;;5025210;28;20053;-75
2023/12/26 09:28:28;;;;;;;25.10;5.10;;;7.80;76.50;;;;;;5025559;28;20856;-71
2023/12/26 09:30:54;;;;;;;23.07;4.40;;;7.80;76.20;;;;;;5025755;28;20045;-75
2023/12/26 09:33:20;;;;;;;28.50;5.03;;;7.80;76.00;;;;;;5024828;28;20122;-75
2023/12/26 09:35:46;;;;;;;25.13;3.90;;;7.80;75.90;;;;;;5024501;28;20053;-75
2023/12/26 09:38:11;;;;;;;26.63;5.20;;;7.90;75.90;;;;;;5025405;28;20067;-76
2023/12/26 09:40:37;;;;;;;25.63;4.50;;;7.80;75.60;;;;;;5023581;28;20099;-74
2023/12/26 09:43:04;;;;;;;20.50;4.23;;;7.80;75.50;;;;;;5020101;28;20128;-75
2023/12/26 09:45:31;;;;;;;18.17;3.87;;;7.80;75.20;;;;;;5025058;28;20128;-74
2023/12/26 09:47:57;;;;;;;25.73;5.47;;;7.80;75.50;;;;;;5026275;28;20054;-76
2023/12/26 09:50:24;;;;;;;28.83;4.53;;;7.80;75.30;;;;;;5025645;28;20049;-75
2023/12/26 09:52:58;;;;;;;27.63;5.63;;;7.80;75.10;;;;;;5024951;28;20053;-75
2023/12/26 09:55:25;;;;;;;26.77;5.13;;;7.90;75.00;;;;;;5017652;28;20053;-75
2023/12/26 09:57:51;;;;;;;26.40;5.40;;;7.90;75.50;;;;;;5025506;28;20556;-75
2023/12/26 10:00:17;;;;;;;20.90;4.90;;;7.90;75.40;;;;;;5024868;28;20156;-76
2023/12/26 10:02:43;;;;;;;24.53;5.17;;;7.90;75.20;;;;;;5024995;28;20377;-75
2023/12/26 10:05:10;;;;;;;28.90;6.23;;;8.00;75.00;;;;;;5023377;28;20502;-74
2023/12/26 10:07:36;;;;;;;26.30;5.33;;;8.00;75.00;;;;;;5024539;28;20071;-75
2023/12/26 10:10:02;;;;;;;21.17;5.17;;;8.00;74.70;;;;;;5023904;28;20099;-75
2023/12/26 10:12:32;;;;;;;26.90;5.17;;;8.00;74.70;;;;;;5024856;28;20385;-75
2023/12/26 10:14:58;;;;;;;22.97;4.83;;;8.00;74.60;;;;;;5016536;28;20049;-75
2023/12/26 10:17:26;;;;;;;26.50;5.27;;;8.10;74.60;;;;;;5022885;28;20046;-75
2023/12/26 10:19:58;;;;;;;22.47;4.27;;;8.10;74.30;;;;;;5023811;28;20056;-75
2023/12/26 10:22:30;;;;;;;21.27;4.33;;;8.10;74.30;;;;;;5023982;28;20057;-75
2023/12/26 10:24:56;;;;;;;27.80;4.80;;;8.10;74.10;;;;;;5024979;28;20411;-76
2023/12/26 10:27:23;;;;;;;25.97;5.97;;;8.10;74.20;;;;;;5024336;28;20492;-74
2023/12/26 10:29:55;;;;;;;27.93;5.50;;;8.20;73.50;;;;;;5023647;28;20037;-75
2023/12/26 10:32:25;;;;;;;26.50;5.17;;;8.20;73.90;;;;;;5013228;28;20045;-75
2023/12/26 10:34:55;;;;;;;25.87;3.73;;;8.30;73.80;;;;;;5023012;28;20053;-75
2023/12/26 10:37:21;;;;;;;27.90;5.17;;;8.40;73.70;;;;;;5024385;28;20073;-75
2023/12/26 10:39:47;;;;;;;29.40;4.43;;;8.40;73.50;;;;;;5039872;28;20596;-75
2023/12/26 10:42:18;;;;;;;27.37;5.20;;;8.40;73.80;;;;;;5017291;28;20056;-75
2023/12/26 10:45:05;;;;;;;23.88;4.25;;;8.50;73.70;;;;;;5022047;28;20057;-75
2023/12/26 10:47:32;;;;;;;23.57;5.40;;;8.50;73.90;;;;;;5003517;28;20089;-76
2023/12/26 10:50:05;;;;;;;29.23;6.03;;;8.40;73.70;;;;;;5001444;28;20060;-75
2023/12/26 10:52:31;;;;;;;25.43;5.13;;;8.40;73.90;;;;;;5005077;28;20514;-75
2023/12/26 10:55:00;;;;;;;23.13;4.83;;;8.30;73.80;;;;;;5023727;28;20409;-75
2023/12/26 10:57:29;;;;;;;26.63;4.87;;;8.30;74.10;;;;;;5004416;28;20421;-75
2023/12/26 13:51:47;;;;;;;13.55;1.67;;;7.50;79.70;;;;;;5014085;28;20053;-75
2023/12/26 13:54:13;;;;;;;12.33;1.93;;;7.30;79.50;;;;;;5024671;28;20049;-74
2023/12/26 13:56:39;;;;;;;11.03;1.60;;;7.20;79.40;;;;;;4999083;28;20045;-76
2023/12/26 13:59:04;;;;;;;8.97;1.50;;;7.20;79.40;;;;;;5024447;28;20393;-76
2023/12/26 14:01:30;;;;;;;12.37;1.77;;;7.20;79.40;;;;;;5023927;28;26293;-75
2023/12/26 14:03:56;;;;;;;11.63;1.63;;;7.20;79.30;;;;;;5023634;28;20139;-75
2023/12/26 14:06:22;;;;;;;11.60;1.40;;;7.10;78.60;;;;;;5024069;28;20153;-75
2023/12/26 14:08:49;;;;;;;10.40;1.90;;;7.00;78.10;;;;;;5026035;28;20380;-75
2023/12/26 14:11:16;;;;;;;11.97;1.47;;;7.00;78.10;;;;;;5024892;28;20049;-75
2023/12/26 14:13:42;;;;;;;11.00;1.50;;;6.90;77.70;;;;;;5014858;28;20050;-75
2023/12/26 14:16:07;;;;;;;7.87;1.47;;;6.80;77.60;;;;;;5022366;28;20053;-75
2023/12/26 14:18:33;;;;;;;12.00;1.80;;;6.70;77.50;;;;;;5023328;28;20432;-75
2023/12/26 14:21:00;;;;;;;11.67;1.17;;;6.70;77.70;;;;;;5024311;28;20050;-75
2023/12/26 14:23:27;;;;;;;14.83;1.97;;;6.70;77.90;;;;;;5024533;28;20060;-75
2023/12/26 14:25:53;;;;;;;10.00;1.60;;;6.70;78.00;;;;;;5024819;28;20153;-75
2023/12/26 14:28:19;;;;;;;7.37;1.13;;;6.60;77.80;;;;;;5023781;28;20051;-75
2023/12/26 14:30:45;;;;;;;9.93;1.33;;;6.60;77.50;;;;;;5023840;28;20135;-75
2023/12/26 14:33:19;;;;;;;10.50;1.70;;;6.60;77.20;;;;;;5022679;28;20047;-73
2023/12/26 14:35:45;;;;;;;8.53;1.30;;;6.50;76.70;;;;;;5025057;28;20493;-75
2023/12/26 14:38:10;;;;;;;6.30;1.50;;;6.50;77.00;;;;;;5024169;28;20049;-71
2023/12/26 14:40:36;;;;;;;6.03;1.60;;;6.40;77.00;;;;;;5024582;28;20114;-75
2023/12/26 14:43:02;;;;;;;9.07;1.67;;;6.40;77.10;;;;;;5017981;28;20474;-75
2023/12/26 14:45:27;;;;;;;5.77;1.33;;;6.30;77.00;;;;;;5023636;28;20425;-75
2023/12/26 14:47:53;;;;;;;8.80;1.63;;;6.30;77.20;;;;;;5024739;28;20555;-75
2023/12/26 14:50:19;;;;;;;14.93;1.73;;;6.30;77.30;;;;;;5023830;28;20466;-75
2023/12/26 14:52:44;;;;;;;12.27;1.90;;;6.20;77.10;;;;;;5025006;28;20051;-75
2023/12/26 14:55:10;;;;;;;13.53;1.83;;;6.20;77.10;;;;;;5023510;28;20136;-75
2023/12/26 14:57:35;;;;;;;12.17;1.70;;;6.20;77.10;;;;;;5022636;28;20060;-75
2023/12/26 15:00:02;;;;;;;10.60;1.50;;;6.10;77.00;;;;;;5025041;28;20064;-75
2023/12/26 15:02:28;;;;;;;10.97;1.70;;;6.00;76.90;;;;;;5023383;28;20050;-75
2023/12/26 15:04:53;;;;;;;11.60;1.57;;;6.00;76.60;;;;;;5024502;28;20053;-75
2023/12/26 15:07:19;;;;;;;12.10;1.90;;;5.90;76.70;;;;;;5023646;28;20087;-75
2023/12/26 15:09:44;;;;;;;9.33;1.80;;;5.90;76.80;;;;;;5024352;28;20064;-75
2023/12/26 15:12:11;;;;;;;13.10;2.20;;;5.90;76.90;;;;;;5023811;28;20080;-75
2023/12/26 15:14:37;;;;;;;16.33;2.53;;;5.80;77.20;;;;;;5024063;28;20407;-75
2023/12/26 15:17:03;;;;;;;18.97;2.87;;;5.70;77.20;;;;;;5021584;28;20053;-75
2023/12/26 15:19:29;;;;;;;14.00;2.70;;;5.80;77.30;;;;;;5020889;28;20902;-75
2023/12/26 15:21:54;;;;;;;14.97;2.63;;;5.70;77.50;;;;;;5023171;28;20123;-74
2023/12/26 15:24:20;;;;;;;16.77;2.73;;;5.70;77.70;;;;;;5023425;28;20499;-75
2023/12/26 15:26:46;;;;;;;14.17;2.50;;;5.70;77.80;;;;;;5023580;28;20111;-75
2023/12/26 15:29:12;;;;;;;12.43;2.50;;;5.70;77.80;;;;;;5023658;28;20056;-75
2023/12/26 15:31:37;;;;;;;12.27;2.40;;;5.70;77.80;;;;;;5022355;28;20562;-75
2023/12/26 15:34:03;;;;;;;10.90;2.50;;;5.70;77.90;;;;;;5023567;28;20041;-75